Time;durP1;ratioP1;P1;durP2;ratioP2;P2;SDS_P1;SDS_P2;PMS_P1;PMS_P2;Temp;Humidity;BMP_temperature;BMP_pressure;BME280_temperature;BME280_humidity;BME280_pressure;Samples;Min_cycle;Max_cycle;Signal;HPM_P1;HPM_P2
2024/01/24 05:30:31;;;;;;;;;0.00;0.00;;;;;22.62;50.04;102170.44;5047550;27;47052;-79
2024/01/24 05:32:57;;;;;;;;;0.00;0.00;;;;;22.61;49.67;102153.16;5016818;28;45254;-79
2024/01/24 05:35:23;;;;;;;;;0.00;0.00;;;;;22.61;49.34;102130.44;5017449;28;45246;-80
2024/01/24 05:37:48;;;;;;;;;0.00;0.00;;;;;22.90;49.43;102177.47;5017232;28;45479;-78
2024/01/24 05:40:14;;;;;;;;;0.00;0.00;;;;;22.80;49.83;102155.41;5016775;28;46317;-79
2024/01/24 05:42:39;;;;;;;;;0.00;0.00;;;;;22.40;50.56;102171.13;5017814;28;45314;-78
2024/01/24 05:45:05;;;;;;;;;0.00;0.00;;;;;22.49;50.92;102188.72;4999433;28;45420;-80
2024/01/24 05:47:31;;;;;;;;;0.00;0.00;;;;;22.75;50.38;102205.97;5017054;28;45439;-77
2024/01/24 05:49:58;;;;;;;;;0.00;0.00;;;;;22.67;50.23;102200.16;5016936;28;45463;-78
2024/01/24 05:52:24;;;;;;;;;0.00;0.00;;;;;22.83;49.92;102219.94;5017215;28;45442;-81
2024/01/24 05:54:49;;;;;;;;;0.00;0.00;;;;;22.64;50.73;102224.00;4998430;28;45361;-78
2024/01/24 05:57:15;;;;;;;;;0.00;0.00;;;;;22.69;50.23;102204.53;5015817;28;47039;-80
2024/01/24 05:59:40;;;;;;;;;0.00;0.00;;;;;22.80;49.57;102221.03;5016702;28;46277;-80
2024/01/24 06:02:05;;;;;;;;;0.00;0.00;;;;;22.86;49.52;102222.47;5022532;28;45313;-79
2024/01/24 06:04:30;;;;;;;;;0.00;0.00;;;;;22.46;50.67;102232.66;4995825;28;45418;-80
2024/01/24 06:07:00;;;;;;;;;0.00;0.00;;;;;22.17;50.72;102221.09;5009982;28;45445;-79
2024/01/24 06:09:26;;;;;;;;;0.00;0.00;;;;;22.37;50.84;102244.28;5016581;28;45389;-78
2024/01/24 06:11:51;;;;;;;;;0.00;0.00;;;;;22.45;50.95;102233.69;5016965;28;45406;-84
2024/01/24 06:14:16;;;;;;;;;0.00;0.00;;;;;22.34;50.90;102228.09;5016487;28;45728;-78
2024/01/24 06:16:42;;;;;;;;;0.00;0.00;;;;;22.67;50.91;102263.03;5016442;28;45404;-82
2024/01/24 06:19:07;;;;;;;;;0.00;0.00;;;;;22.81;50.98;102277.50;5016444;28;45393;-78
2024/01/24 06:21:33;;;;;;;;;0.25;0.00;;;;;22.67;51.17;102276.72;5016635;28;45465;-76
2024/01/24 06:23:58;;;;;;;;;0.00;0.00;;;;;22.26;51.92;102248.66;5016424;28;45736;-82
2024/01/24 06:26:23;;;;;;;;;0.00;0.00;;;;;22.71;51.56;102289.19;5016837;28;45344;-79
2024/01/24 06:28:49;;;;;;;;;0.00;0.00;;;;;22.75;51.19;102290.75;5015508;28;53796;-79
2024/01/24 06:31:14;;;;;;;;;0.00;0.00;;;;;22.76;51.45;102304.31;5027432;28;45569;-77
2024/01/24 06:33:40;;;;;;;;;0.00;0.00;;;;;22.72;51.56;102310.94;5056582;28;46019;-79
2024/01/24 06:36:05;;;;;;;;;0.00;0.00;;;;;22.53;52.41;102302.31;5057224;28;45383;-80
2024/01/24 06:38:30;;;;;;;;;0.00;0.00;;;;;22.67;52.14;102313.13;5056188;28;45475;-78
2024/01/24 06:40:56;;;;;;;;;0.00;0.00;;;;;22.42;53.35;102311.28;5046115;28;45354;-82
2024/01/24 06:43:21;;;;;;;;;0.00;0.00;;;;;22.52;52.68;102330.66;5042269;28;45491;-79
2024/01/24 06:45:47;;;;;;;;;0.00;0.00;;;;;22.56;52.99;102330.31;5027107;28;46672;-80
2024/01/24 06:48:12;;;;;;;;;0.00;0.00;;;;;22.57;52.80;102329.31;5035674;28;45522;-79
2024/01/24 06:50:38;;;;;;;;;0.00;0.00;;;;;22.45;53.00;102311.06;5036596;28;45312;-81
2024/01/24 06:53:20;;;;;;;;;0.00;0.00;;;;;22.73;52.42;102342.75;5036114;28;45254;-87
2024/01/24 06:55:45;;;;;;;;;1.00;0.00;;;;;22.41;52.38;102316.84;5037725;28;45507;-83
2024/01/24 06:58:11;;;;;;;;;0.75;0.00;;;;;22.41;51.82;102328.66;5037586;28;46063;-83
2024/01/24 07:00:36;;;;;;;;;0.00;0.00;;;;;22.47;51.89;102336.41;5036366;28;45294;-78
2024/01/24 07:03:01;;;;;;;;;0.00;0.00;;;;;22.25;51.89;102353.47;5042726;28;45602;-77
2024/01/24 07:05:27;;;;;;;;;1.00;0.00;;;;;22.17;52.11;102328.53;5037257;28;45569;-78
2024/01/24 07:07:52;;;;;;;;;0.00;0.00;;;;;22.32;51.83;102347.56;5035633;28;45426;-81
2024/01/24 07:10:18;;;;;;;;;0.00;0.00;;;;;22.27;51.78;102334.22;5035433;28;45328;-85
2024/01/24 07:12:46;;;;;;;;;0.25;0.00;;;;;22.17;51.22;102316.72;5036324;28;45423;-82
2024/01/24 07:15:12;;;;;;;;;0.00;0.00;;;;;22.33;50.75;102350.19;5031202;28;46306;-80
2024/01/24 07:17:37;;;;;;;;;0.00;0.00;;;;;22.37;50.91;102356.31;5057000;28;45509;-82
2024/01/24 07:20:03;;;;;;;;;1.50;0.00;;;;;21.94;51.38;102348.34;5056207;28;45345;-82
2024/01/24 07:22:28;;;;;;;;;0.00;0.00;;;;;22.13;50.93;102365.22;5038543;28;45514;-81
2024/01/24 07:24:54;;;;;;;;;0.00;0.00;;;;;22.04;50.80;102319.41;5055380;28;45627;-82
2024/01/24 07:27:19;;;;;;;;;1.00;0.00;;;;;22.10;50.44;102315.41;5055201;28;46076;-81
2024/01/24 07:29:44;;;;;;;;;0.00;0.00;;;;;22.08;50.37;102325.56;5055136;28;45336;-83
2024/01/24 07:32:10;;;;;;;;;0.00;0.00;;;;;21.96;50.12;102324.50;5054351;28;48966;-82
2024/01/24 07:34:38;;;;;;;;;0.00;0.00;;;;;22.18;50.25;102348.53;5055474;28;48217;-81
2024/01/24 07:37:04;;;;;;;;;0.00;0.00;;;;;21.76;50.54;102328.59;5048459;28;46545;-82
2024/01/24 07:39:30;;;;;;;;;0.00;0.00;;;;;21.89;50.40;102356.81;5035107;28;45647;-80
2024/01/24 07:41:55;;;;;;;;;0.00;0.00;;;;;21.73;50.64;102352.50;5042470;28;45501;-83
2024/01/24 07:44:21;;;;;;;;;2.25;0.50;;;;;21.69;50.54;102351.81;5055612;28;45640;-83
2024/01/24 07:46:46;;;;;;;;;0.00;0.00;;;;;21.69;50.75;102367.34;5055954;28;45407;-82
2024/01/24 07:49:12;;;;;;;;;0.00;0.00;;;;;21.65;50.51;102341.22;5055571;28;45272;-82
2024/01/24 07:51:37;;;;;;;;;0.00;0.00;;;;;21.81;50.25;102352.84;5057421;28;45315;-82
2024/01/24 07:54:03;;;;;;;;;0.50;0.50;;;;;21.40;50.43;102303.78;5055901;28;45512;-82
2024/01/24 07:56:28;;;;;;;;;0.75;0.00;;;;;21.67;51.04;102400.19;5037217;28;47383;-82
2024/01/24 07:58:54;;;;;;;;;0.00;0.00;;;;;21.61;50.57;102362.38;5055227;28;45350;-82
2024/01/24 08:01:20;;;;;;;;;0.50;0.50;;;;;21.85;50.44;102406.28;5055880;28;45405;-83
2024/01/24 08:03:45;;;;;;;;;0.50;0.00;;;;;21.74;50.02;102370.63;5028239;28;45416;-80
2024/01/24 08:06:11;;;;;;;;;3.00;0.00;;;;;21.64;49.58;102372.22;5034972;28;46345;-81
2024/01/24 08:08:37;;;;;;;;;1.00;0.00;;;;;21.78;49.75;102369.44;5048201;28;45150;-83
2024/01/24 08:11:02;;;;;;;;;0.00;0.00;;;;;21.69;48.88;102350.97;5033584;28;45293;-83
2024/01/24 08:13:29;;;;;;;;;1.00;1.00;;;;;21.67;48.61;102350.19;5050887;28;45386;-81
2024/01/24 08:15:54;;;;;;;;;0.50;0.50;;;;;21.55;47.82;102373.72;5025543;28;45332;-81
2024/01/24 08:18:20;;;;;;;;;1.00;0.00;;;;;21.93;48.12;102408.50;5053854;28;45398;-83
2024/01/24 08:20:45;;;;;;;;;1.00;0.00;;;;;21.37;48.06;102339.44;5050818;28;45276;-80
2024/01/24 08:23:11;;;;;;;;;1.50;1.00;;;;;21.49;47.52;102388.66;5022028;28;45646;-81
2024/01/24 08:25:37;;;;;;;;;0.50;0.00;;;;;21.43;47.92;102394.50;5047728;28;45386;-81
2024/01/24 08:28:02;;;;;;;;;2.00;0.75;;;;;21.76;47.79;102445.13;5037006;28;45462;-81
2024/01/24 08:30:27;;;;;;;;;0.75;0.75;;;;;21.56;47.07;102456.47;5055208;28;45373;-82
2024/01/24 08:32:53;;;;;;;;;5.00;1.00;;;;;21.41;47.34;102444.69;5055407;28;45327;-83
2024/01/24 08:35:20;;;;;;;;;2.00;0.25;;;;;21.72;47.21;102446.28;5056301;28;47661;-83
2024/01/24 08:37:46;;;;;;;;;2.75;2.50;;;;;21.91;46.39;102468.69;5055400;28;45327;-81
2024/01/24 08:40:11;;;;;;;;;6.00;0.25;;;;;21.66;46.72;102443.97;5035620;28;45277;-81
2024/01/24 08:42:37;;;;;;;;;0.25;0.25;;;;;22.02;46.26;102504.41;5048718;28;45286;-81
2024/01/24 08:45:04;;;;;;;;;4.25;1.00;;;;;21.92;46.14;102483.22;5048832;28;47430;-79
2024/01/24 08:47:30;;;;;;;;;1.75;1.00;;;;;21.66;47.09;102453.03;5042463;28;45358;-82
2024/01/24 08:49:56;;;;;;;;;1.00;1.00;;;;;21.57;46.98;102467.28;5043407;28;45510;-80
2024/01/24 08:52:24;;;;;;;;;1.50;1.00;;;;;21.61;47.30;102485.19;5044873;28;45601;-80
2024/01/24 08:54:50;;;;;;;;;1.50;1.25;;;;;21.62;47.16;102477.88;5005564;28;47107;-81
2024/01/24 08:57:16;;;;;;;;;2.00;2.00;;;;;21.92;46.83;102489.56;5044188;28;45321;-79
2024/01/24 08:59:41;;;;;;;;;2.00;0.75;;;;;21.47;46.51;102406.97;5042744;28;45237;-80
2024/01/24 09:02:07;;;;;;;;;1.50;0.25;;;;;21.58;46.73;102428.09;5041627;28;45474;-81
2024/01/24 09:04:32;;;;;;;;;1.50;1.50;;;;;22.10;46.30;102501.16;5037987;28;46004;-81
2024/01/24 09:06:58;;;;;;;;;0.00;0.00;;;;;21.98;46.35;102504.69;5034288;28;45359;-80
2024/01/24 09:09:25;;;;;;;;;1.75;1.25;;;;;21.85;46.50;102469.09;5034502;28;45446;-82
2024/01/24 09:11:50;;;;;;;;;1.75;1.75;;;;;22.15;46.23;102472.53;5035261;28;45395;-79
2024/01/24 09:14:15;;;;;;;;;0.25;0.25;;;;;22.23;45.66;102505.69;5049681;28;46372;-81
2024/01/24 09:16:41;;;;;;;;;2.00;2.00;;;;;21.76;46.27;102486.09;5053905;28;45374;-80
2024/01/24 09:19:06;;;;;;;;;1.00;1.00;;;;;21.73;46.75;102489.00;5053602;28;45520;-82
2024/01/24 09:21:32;;;;;;;;;2.00;1.00;;;;;21.96;46.52;102521.13;5054085;28;45496;-81
2024/01/24 09:23:57;;;;;;;;;1.25;0.50;;;;;21.68;46.20;102442.03;5035947;28;46444;-79
2024/01/24 09:26:23;;;;;;;;;3.00;2.50;;;;;22.04;46.95;102520.66;5054160;28;45496;-82
2024/01/24 09:28:48;;;;;;;;;3.00;3.00;;;;;22.01;46.89;102520.88;5053762;28;45310;-82
2024/01/24 09:31:14;;;;;;;;;4.50;2.00;;;;;22.22;47.25;102544.03;5056967;28;45427;-79
2024/01/24 09:33:39;;;;;;;;;1.50;1.00;;;;;22.31;46.65;102537.06;5039089;28;47423;-81
2024/01/24 09:36:05;;;;;;;;;3.00;2.00;;;;;22.15;46.19;102513.53;5039182;28;45642;-83
2024/01/24 09:38:30;;;;;;;;;0.25;0.25;;;;;22.34;46.05;102540.50;5057524;28;45349;-81
2024/01/24 09:40:59;;;;;;;;;2.75;1.00;;;;;;;;5046549;28;45621;-83
2024/01/24 09:43:29;;;;;;;;;2.00;2.00;;;;;22.12;44.80;102549.22;5037033;28;46125;-81
2024/01/24 09:45:57;;;;;;;;;3.50;1.00;;;;;22.11;44.33;102555.69;5057088;28;45547;-81
2024/01/24 09:48:23;;;;;;;;;3.50;2.00;;;;;22.22;44.32;102569.50;5039055;28;45360;-82
2024/01/24 09:50:48;;;;;;;;;1.50;1.50;;;;;21.75;44.51;102515.22;5056925;28;46482;-81
2024/01/24 09:53:19;;;;;;;;;6.00;1.00;;;;;22.12;44.37;102545.63;5038991;28;47111;-82
2024/01/24 09:55:45;;;;;;;;;4.75;1.50;;;;;21.97;44.30;102557.50;5056998;28;45393;-81
2024/01/24 09:58:11;;;;;;;;;5.00;2.00;;;;;22.18;44.12;102554.31;5057483;28;45401;-82
2024/01/24 10:00:36;;;;;;;;;2.00;1.00;;;;;22.03;43.63;102538.91;5056960;28;45275;-81
2024/01/24 10:03:03;;;;;;;;;1.25;1.25;;;;;21.95;43.16;102546.69;5049843;28;45942;-82
2024/01/24 10:05:30;;;;;;;;;4.75;2.00;;;;;21.95;42.63;102548.56;5037101;28;45396;-81
2024/01/24 10:07:55;;;;;;;;;6.25;4.00;;;;;22.05;42.80;102590.69;5036927;28;45502;-82
2024/01/24 10:10:20;;;;;;;;;4.00;3.00;;;;;22.10;42.59;102591.31;5036619;28;45587;-81
2024/01/24 10:12:46;;;;;;;;;2.75;2.00;;;;;21.89;42.56;102571.66;5036922;28;45603;-83
2024/01/24 10:15:13;;;;;;;;;7.00;3.00;;;;;21.88;42.40;102568.06;5036509;28;45478;-82
2024/01/24 10:17:42;;;;;;;;;3.00;3.00;;;;;22.06;42.66;102596.06;5036866;28;45395;-81
2024/01/24 10:20:11;;;;;;;;;2.25;1.50;;;;;22.10;42.21;102577.66;5056571;28;45314;-83
2024/01/24 10:22:38;;;;;;;;;4.00;4.00;;;;;22.12;42.21;102592.06;5056792;28;46011;-83
2024/01/24 10:25:06;;;;;;;;;6.00;4.00;;;;;22.11;41.77;102588.47;5056343;28;45492;-80
2024/01/24 10:27:34;;;;;;;;;6.00;3.25;;;;;22.17;41.99;102566.22;5038634;28;45562;-81
2024/01/24 10:30:00;;;;;;;;;7.50;3.50;;;;;22.40;41.39;102580.19;5038370;28;46047;-81
2024/01/24 10:32:25;;;;;;;;;4.50;1.50;;;;;22.39;41.13;102600.28;5038403;28;46439;-81
2024/01/24 10:34:50;;;;;;;;;5.50;4.25;;;;;22.42;40.95;102595.53;5057966;28;45448;-82
2024/01/24 10:37:18;;;;;;;;;5.75;5.00;;;;;22.26;41.33;102578.38;5059002;28;45320;-81
2024/01/24 10:39:44;;;;;;;;;8.00;4.00;;;;;22.14;41.65;102570.97;5057625;28;46417;-81
2024/01/24 10:42:12;;;;;;;;;7.75;6.25;;;;;22.17;41.55;102618.13;5039240;28;45470;-81
2024/01/24 10:44:42;;;;;;;;;4.00;2.25;;;;;22.26;41.75;102614.78;5039592;28;45355;-81
2024/01/24 10:47:09;;;;;;;;;4.25;3.00;;;;;22.32;41.09;102590.75;5038202;28;45391;-82
2024/01/24 10:49:37;;;;;;;;;7.75;3.00;;;;;22.41;40.78;102620.22;5036987;28;45574;-82
2024/01/24 10:52:04;;;;;;;;;5.00;5.00;;;;;22.33;40.89;102623.44;5036505;28;46300;-81
2024/01/24 10:54:31;;;;;;;;;5.50;2.00;;;;;22.33;40.59;102609.78;5035213;28;45459;-82
2024/01/24 10:56:59;;;;;;;;;7.75;4.25;;;;;22.32;40.66;102615.34;5037181;28;45450;-80
2024/01/24 10:59:27;;;;;;;;;5.75;4.50;;;;;22.44;40.85;102606.34;5049401;28;45520;-81
2024/01/24 11:01:52;;;;;;;;;8.00;4.75;;;;;22.71;40.18;102620.94;5040245;28;46786;-81
2024/01/24 11:04:22;;;;;;;;;6.25;5.00;;;;;22.78;40.08;102621.41;5037918;28;45234;-80
2024/01/24 11:06:54;;;;;;;;;7.50;4.75;;;;;22.96;40.09;102622.91;5054186;28;45329;-81
2024/01/24 11:10:04;;;;;;;;;7.25;2.50;;;;;22.80;39.63;102606.63;5035690;28;45446;-82
2024/01/24 11:12:29;;;;;;;;;5.00;4.00;;;;;22.88;39.55;102595.19;5034310;28;47151;-82
2024/01/24 11:15:08;;;;;;;;;5.75;3.50;;;;;22.66;40.14;102538.31;5035547;28;45447;-81
2024/01/24 11:17:33;;;;;;;;;8.00;5.25;;;;;22.71;39.55;102558.03;5036068;28;45363;-82
2024/01/24 11:20:05;;;;;;;;;3.75;3.75;;;;;22.91;39.42;102575.81;5037253;28;46940;-82
2024/01/24 11:22:32;;;;;;;;;6.25;3.00;;;;;23.09;39.14;102557.25;5055996;28;46415;-83
2024/01/24 11:24:58;;;;;;;;;9.25;5.25;;;;;23.66;39.07;102587.88;5055811;28;45515;-80
2024/01/24 11:27:35;;;;;;;;;5.00;4.25;;;;;23.64;38.11;102555.13;5056614;28;45423;-81
2024/01/24 11:30:00;;;;;;;;;8.25;4.00;;;;;24.20;37.18;102593.06;5038497;28;46979;-82
2024/01/24 11:32:43;;;;;;;;;4.00;2.25;;;;;25.00;36.49;102584.22;5055750;28;45308;-82
2024/01/24 11:35:31;;;;;;;;;8.00;5.25;;;;;26.17;35.39;102604.13;5055855;28;45529;-81
2024/01/24 11:38:01;;;;;;;;;6.75;3.50;;;;;26.97;32.69;102597.31;5055723;28;45592;-82
2024/01/24 11:40:27;;;;;;;;;8.00;5.00;;;;;27.14;31.74;102608.78;5049160;28;46262;-82
2024/01/24 11:42:53;;;;;;;;;6.50;4.25;;;;;27.44;31.74;102606.09;5050711;28;46317;-80
2024/01/24 11:45:23;;;;;;;;;6.50;4.25;;;;;27.62;31.64;102614.66;5039486;28;45322;-81
2024/01/24 11:47:49;;;;;;;;;6.50;5.00;;;;;27.82;31.10;102594.44;5057407;28;45572;-82
2024/01/24 11:50:15;;;;;;;;;6.00;5.25;;;;;27.61;31.17;102590.88;5057083;28;45473;-82
2024/01/24 11:52:41;;;;;;;;;5.50;4.50;;;;;28.15;30.89;102630.03;5056223;28;45346;-81
2024/01/24 11:55:07;;;;;;;;;4.00;3.00;;;;;27.83;29.96;102621.00;5057346;28;45425;-81
2024/01/24 11:57:32;;;;;;;;;2.25;2.00;;;;;27.92;31.05;102595.38;5056586;28;45465;-80
2024/01/24 11:59:58;;;;;;;;;3.00;2.00;;;;;27.66;30.45;102610.59;5054042;28;45544;-79
2024/01/24 12:02:23;;;;;;;;;7.00;3.50;;;;;27.75;30.96;102623.56;5052396;28;46160;-82
2024/01/24 12:04:53;;;;;;;;;6.00;3.75;;;;;27.63;30.92;102597.13;5034840;28;45452;-82
2024/01/24 12:07:19;;;;;;;;;6.00;3.00;;;;;27.23;31.33;102625.38;5038801;28;45486;-75
2024/01/24 12:09:45;;;;;;;;;4.00;4.00;;;;;26.96;32.42;102603.00;5034652;28;45442;-81
2024/01/24 12:12:12;;;;;;;;;4.25;4.00;;;;;26.60;32.52;102602.34;5034365;28;45825;-77
2024/01/24 12:14:39;;;;;;;;;4.50;3.00;;;;;26.25;32.76;102588.75;5035219;28;45451;-82
2024/01/24 12:17:08;;;;;;;;;8.00;5.50;;;;;25.67;33.73;102602.75;5035361;28;45356;-85
2024/01/24 12:19:35;;;;;;;;;8.25;4.25;;;;;25.20;34.61;102613.72;5028547;28;46555;-87
2024/01/24 12:22:02;;;;;;;;;6.00;4.25;;;;;25.09;34.59;102572.53;5057605;28;46386;-86
2024/01/24 12:24:27;;;;;;;;;5.50;4.25;;;;;24.19;35.01;102588.56;5055713;28;45378;-82
2024/01/24 12:26:53;;;;;;;;;3.50;1.50;;;;;23.58;35.99;102522.69;5055940;28;45382;-86
2024/01/24 12:29:22;;;;;;;;;6.50;5.25;;;;;23.39;35.83;102509.41;5038398;28;45410;-84
2024/01/24 12:31:48;;;;;;;;;5.00;3.50;;;;;23.67;36.48;102530.25;5056528;28;45332;-84
2024/01/24 12:34:14;;;;;;;;;5.25;3.25;;;;;23.61;36.64;102590.94;5054709;28;45430;-80
2024/01/24 12:36:45;;;;;;;;;4.50;1.00;;;;;23.70;36.78;102603.09;5036430;28;47462;-81
2024/01/24 12:39:11;;;;;;;;;6.00;6.00;;;;;23.83;37.11;102603.06;5054975;28;45260;-81
2024/01/24 12:41:39;;;;;;;;;3.00;1.00;;;;;24.13;36.73;102617.31;5039211;28;45251;-82
2024/01/24 12:44:04;;;;;;;;;8.50;4.25;;;;;24.10;36.20;102593.72;5035272;28;45463;-83
2024/01/24 12:46:29;;;;;;;;;6.50;3.50;;;;;24.01;35.43;102605.38;5039556;28;45419;-81
2024/01/24 12:48:55;;;;;;;;;3.25;3.25;;;;;24.28;35.70;102632.66;5047811;28;45371;-78
2024/01/24 12:51:20;;;;;;;;;6.00;4.50;;;;;23.84;35.79;102624.88;5050276;28;57345;-79
2024/01/24 12:53:46;;;;;;;;;5.00;3.00;;;;;24.00;35.65;102627.38;5042080;28;45328;-80
2024/01/24 12:56:14;;;;;;;;;5.25;4.00;;;;;23.50;36.44;102598.16;5034330;28;45450;-81
2024/01/24 12:58:39;;;;;;;;;8.25;5.75;;;;;23.51;35.97;102605.38;5034454;28;45353;-80
2024/01/24 13:01:04;;;;;;;;;6.75;3.75;;;;;23.73;36.23;102628.38;5032334;28;47018;-80
2024/01/24 13:03:30;;;;;;;;;6.25;5.00;;;;;23.57;36.76;102622.25;5043375;28;45354;-80
2024/01/24 13:05:55;;;;;;;;;6.75;4.75;;;;;23.75;35.83;102636.50;5037597;28;45438;-80
2024/01/24 13:08:30;;;;;;;;;8.00;4.00;;;;;23.58;36.04;102617.66;5037275;28;45505;-82
2024/01/24 13:10:55;;;;;;;;;5.50;4.25;;;;;23.62;36.23;102628.31;5033465;28;46634;-80
2024/01/24 13:13:21;;;;;;;;;7.00;4.75;;;;;23.61;36.06;102614.72;5035815;28;45498;-80
2024/01/24 13:15:46;;;;;;;;;6.00;4.00;;;;;23.42;36.68;102628.78;5036996;28;45642;-80
2024/01/24 13:18:12;;;;;;;;;7.50;3.75;;;;;23.65;36.15;102621.72;5035163;28;46120;-79
2024/01/24 13:20:37;;;;;;;;;2.00;2.00;;;;;23.37;35.84;102640.06;5056538;28;45422;-80
2024/01/24 13:23:03;;;;;;;;;8.75;5.00;;;;;23.67;35.92;102597.84;5056614;28;45410;-81
2024/01/24 13:25:28;;;;;;;;;5.75;3.00;;;;;24.04;35.84;102634.41;5056792;28;45369;-79
2024/01/24 13:27:54;;;;;;;;;3.25;3.00;;;;;23.93;36.33;102642.53;5057345;28;45580;-80
2024/01/24 13:30:21;;;;;;;;;5.00;4.00;;;;;23.73;36.30;102614.69;5056727;28;46609;-81
2024/01/24 13:32:47;;;;;;;;;5.75;4.25;;;;;23.85;36.20;102612.06;5055898;28;45557;-80
2024/01/24 13:35:13;;;;;;;;;7.50;4.00;;;;;23.67;36.56;102601.44;5056616;28;45477;-80
2024/01/24 13:37:38;;;;;;;;;7.00;5.25;;;;;23.86;36.24;102594.66;5057077;28;45979;-80
2024/01/24 13:40:08;;;;;;;;;4.50;3.00;;;;;23.93;36.71;102621.47;5053495;28;45345;-77
2024/01/24 13:42:33;;;;;;;;;8.50;3.75;;;;;23.96;36.61;102591.13;5037024;28;45336;-82
2024/01/24 13:44:59;;;;;;;;;6.00;3.00;;;;;24.08;36.18;102581.13;5036328;28;45360;-80
2024/01/24 13:47:24;;;;;;;;;7.75;4.75;;;;;24.06;35.93;102596.81;5046050;28;45669;-79
2024/01/24 13:49:50;;;;;;;;;7.00;3.25;;;;;24.02;36.02;102595.28;5034295;28;50207;-80
2024/01/24 13:52:15;;;;;;;;;5.00;3.75;;;;;24.05;36.42;102603.28;5034753;28;45555;-80
2024/01/24 13:54:40;;;;;;;;;4.50;3.50;;;;;23.98;35.86;102580.94;5034595;28;45387;-81
2024/01/24 13:57:06;;;;;;;;;5.75;2.00;;;;;24.33;36.10;102626.84;5035141;28;45590;-79
2024/01/24 13:59:31;;;;;;;;;4.75;3.25;;;;;24.34;36.31;102628.56;5034667;28;46272;-79
2024/01/24 14:01:56;;;;;;;;;1.25;1.25;;;;;24.24;35.73;102602.84;5041859;28;51341;-79
2024/01/24 14:04:22;;;;;;;;;5.25;3.00;;;;;24.41;35.71;102618.91;5037264;28;45474;-79
2024/01/24 14:06:47;;;;;;;;;4.00;3.00;;;;;24.34;35.70;102593.81;5036804;28;45675;-80
2024/01/24 14:09:13;;;;;;;;;6.25;3.50;;;;;24.31;35.78;102595.91;5036344;28;46211;-80
2024/01/24 14:11:39;;;;;;;;;2.50;2.00;;;;;24.36;35.65;102602.78;5056806;28;45374;-80
2024/01/24 14:14:05;;;;;;;;;4.00;3.75;;;;;24.51;35.88;102614.47;5048527;28;45479;-80
2024/01/24 14:16:30;;;;;;;;;6.00;3.00;;;;;24.68;35.68;102621.44;5036469;28;45503;-79
2024/01/24 14:18:56;;;;;;;;;7.75;2.50;;;;;24.38;35.49;102578.00;5036835;28;46301;-80
2024/01/24 14:21:21;;;;;;;;;5.50;2.50;;;;;24.38;36.27;102606.31;5037465;28;45290;-78
2024/01/24 14:23:46;;;;;;;;;3.75;2.50;;;;;24.35;35.57;102578.22;5057028;28;45275;-80
2024/01/24 14:26:12;;;;;;;;;4.00;2.00;;;;;24.72;35.67;102612.88;5039359;28;45689;-81
2024/01/24 14:28:38;;;;;;;;;7.25;4.25;;;;;24.32;35.64;102578.47;5057014;28;45496;-80
2024/01/24 14:31:04;;;;;;;;;6.00;2.25;;;;;24.53;35.45;102596.03;5038923;28;57034;-80
2024/01/24 14:33:29;;;;;;;;;2.75;2.75;;;;;24.60;35.79;102612.91;5039056;28;45444;-81
2024/01/24 14:35:54;;;;;;;;;5.25;3.00;;;;;24.75;35.26;102609.03;5056633;28;45509;-80
2024/01/24 14:38:20;;;;;;;;;5.25;3.25;;;;;24.81;35.40;102590.22;5056340;28;46038;-81
2024/01/24 14:40:45;;;;;;;;;7.25;3.25;;;;;24.98;34.78;102610.91;5048135;28;45315;-79
2024/01/24 14:43:10;;;;;;;;;7.00;4.00;;;;;25.06;35.03;102637.75;5036772;28;45474;-79
2024/01/24 14:45:37;;;;;;;;;9.00;6.00;;;;;24.69;35.01;102609.47;5036566;28;45337;-80
2024/01/24 14:48:02;;;;;;;;;3.00;2.00;;;;;25.15;35.22;102637.03;5056437;28;45417;-79
2024/01/24 14:50:29;;;;;;;;;5.00;2.75;;;;;25.09;34.62;102641.16;5038267;28;45360;-79
2024/01/24 14:52:55;;;;;;;;;4.00;1.50;;;;;24.87;35.00;102608.94;5036265;28;45303;-81
2024/01/24 14:55:20;;;;;;;;;7.50;2.00;;;;;24.79;34.34;102564.75;5035916;28;45629;-80
2024/01/24 14:57:46;;;;;;;;;7.00;2.75;;;;;24.97;34.88;102650.31;5035866;28;45959;-80
2024/01/24 15:00:12;;;;;;;;;4.00;2.75;;;;;24.81;35.52;102642.34;5036073;28;45156;-80
2024/01/24 15:02:38;;;;;;;;;5.75;3.00;;;;;24.54;35.32;102647.16;5032217;28;45442;-80
2024/01/24 15:05:07;;;;;;;;;2.25;2.25;;;;;24.66;35.20;102635.28;5015003;28;45503;-79
2024/01/24 15:07:33;;;;;;;;;4.50;2.25;;;;;24.26;35.61;102625.50;5035599;28;46094;-79
2024/01/24 15:09:58;;;;;;;;;6.25;3.00;;;;;24.43;35.41;102633.38;5017765;28;45228;-79
2024/01/24 15:12:27;;;;;;;;;5.50;3.00;;;;;24.42;35.61;102607.81;5036030;28;45355;-80
2024/01/24 15:14:52;;;;;;;;;4.75;3.25;;;;;24.64;35.09;102622.66;5020508;28;45285;-80
2024/01/24 15:17:18;;;;;;;;;2.25;1.50;;;;;24.25;35.54;102593.59;5035540;28;46066;-80
2024/01/24 15:19:45;;;;;;;;;3.00;2.00;;;;;24.51;35.57;102618.09;5035793;28;45355;-81
2024/01/24 15:22:12;;;;;;;;;4.75;3.00;;;;;24.63;35.40;102632.75;5035769;28;45386;-80
2024/01/24 15:24:37;;;;;;;;;4.25;2.00;;;;;24.75;35.24;102650.16;5035616;28;45321;-80
2024/01/24 15:27:03;;;;;;;;;2.00;2.00;;;;;24.37;35.28;102628.34;5034212;28;46216;-79
2024/01/24 15:29:29;;;;;;;;;6.00;3.25;;;;;24.31;35.65;102640.66;5017793;28;45585;-80
2024/01/24 15:31:54;;;;;;;;;9.00;2.75;;;;;24.14;36.47;102641.84;5017519;28;45656;-80
2024/01/24 15:34:20;;;;;;;;;0.50;0.50;;;;;23.98;35.97;102627.53;5035440;28;45300;-80
2024/01/24 15:36:45;;;;;;;;;2.00;1.00;;;;;24.11;36.26;102608.31;5035330;28;45207;-79
2024/01/24 15:39:12;;;;;;;;;4.00;2.00;;;;;24.16;36.00;102649.09;5035192;28;45394;-79
2024/01/24 15:41:37;;;;;;;;;4.25;2.25;;;;;23.98;35.65;102605.59;5024102;28;45495;-81
2024/01/24 15:44:03;;;;;;;;;2.25;2.00;;;;;24.01;36.41;102654.69;5035505;28;51689;-79
2024/01/24 15:46:28;;;;;;;;;3.75;3.00;;;;;24.06;36.47;102651.63;5017260;28;46360;-80
2024/01/24 15:48:54;;;;;;;;;6.00;2.00;;;;;23.96;36.13;102637.72;5035463;28;45296;-80
2024/01/24 15:51:19;;;;;;;;;3.25;3.25;;;;;23.93;36.52;102640.66;5034878;28;45494;-80
2024/01/24 15:53:44;;;;;;;;;7.25;3.00;;;;;23.96;36.56;102642.31;5035263;28;45440;-79
2024/01/24 15:56:10;;;;;;;;;2.75;1.75;;;;;23.89;36.91;102651.97;5035092;28;45331;-79
2024/01/24 15:58:35;;;;;;;;;1.75;1.75;;;;;23.71;37.30;102648.69;5017336;28;45741;-80
2024/01/24 16:01:00;;;;;;;;;2.25;2.25;;;;;23.96;36.69;102658.75;5035189;28;45472;-81
2024/01/24 16:03:32;;;;;;;;;4.75;3.00;;;;;23.79;36.93;102664.56;5024450;28;47983;-79
2024/01/24 16:05:58;;;;;;;;;8.75;3.50;;;;;23.75;36.90;102622.81;5015062;28;45550;-79
2024/01/24 16:08:24;;;;;;;;;6.25;4.00;;;;;23.86;37.07;102658.53;5026312;28;45540;-79
2024/01/24 16:10:49;;;;;;;;;2.00;2.00;;;;;23.70;36.83;102628.63;5034788;28;45236;-80
2024/01/24 16:13:14;;;;;;;;;2.75;2.75;;;;;23.64;36.88;102601.69;5033595;28;45549;-80
2024/01/24 16:15:40;;;;;;;;;5.25;2.00;;;;;23.71;37.03;102615.81;5014878;28;45982;-80
2024/01/24 16:18:06;;;;;;;;;2.50;1.00;;;;;23.80;37.29;102645.28;5015374;28;45374;-80
2024/01/24 16:20:32;;;;;;;;;2.50;2.00;;;;;23.72;36.61;102621.19;5013639;28;45408;-80
2024/01/24 16:22:58;;;;;;;;;5.75;2.75;;;;;23.69;36.89;102636.94;5015054;28;45352;-80
2024/01/24 16:25:24;;;;;;;;;3.25;1.00;;;;;23.87;37.27;102660.28;5013192;28;47639;-80
2024/01/24 16:27:50;;;;;;;;;4.00;1.75;;;;;23.58;37.44;102631.34;5013816;28;45368;-81
2024/01/24 16:30:15;;;;;;;;;7.75;2.00;;;;;23.56;37.40;102622.38;5015307;28;45423;-79
2024/01/24 16:32:40;;;;;;;;;3.00;2.00;;;;;23.51;37.72;102619.97;5014690;28;45554;-80
2024/01/24 16:35:09;;;;;;;;;2.50;1.00;;;;;23.67;37.33;102661.69;5014345;28;46128;-80
2024/01/24 16:37:35;;;;;;;;;3.00;2.00;;;;;23.59;37.53;102652.28;5014447;28;45415;-79
2024/01/24 16:40:03;;;;;;;;;3.50;1.25;;;;;23.48;37.70;102632.97;5011461;28;45538;-80
2024/01/24 16:42:29;;;;;;;;;2.75;2.25;;;;;23.07;37.70;102557.34;5006412;28;45519;-79
2024/01/24 16:44:55;;;;;;;;;1.75;1.00;;;;;23.64;37.31;102656.47;5014402;28;45446;-80
2024/01/24 16:47:22;;;;;;;;;2.00;2.00;;;;;23.71;37.30;102670.59;5005419;28;45668;-79
2024/01/24 16:49:48;;;;;;;;;0.75;0.75;;;;;23.63;37.69;102648.34;5001507;28;45552;-78
2024/01/24 16:52:14;;;;;;;;;3.00;3.00;;;;;23.87;37.48;102667.63;5004357;28;45301;-78